Time;durP1;ratioP1;P1;durP2;ratioP2;P2;SDS_P1;SDS_P2;PMS_P1;PMS_P2;Temp;Humidity;BMP_temperature;BMP_pressure;BME280_temperature;BME280_humidity;BME280_pressure;Samples;Min_cycle;Max_cycle;Signal;HPM_P1;HPM_P2
2023/05/20 00:00:52;;;;;;;6.60;2.72;;;11.10;1.00;;;;;;4978328;28;20037;-73
2023/05/20 00:03:19;;;;;;;7.03;3.00;;;11.00;1.00;;;;;;4977538;28;20468;-74
2023/05/20 00:05:45;;;;;;;5.60;2.40;;;11.00;1.00;;;;;;4988634;28;20104;-73
2023/05/20 00:08:11;;;;;;;6.43;3.00;;;11.00;74.60;;;;;;4956624;28;20121;-73
2023/05/20 00:10:37;;;;;;;6.65;3.60;;;10.90;34.60;;;;;;4987535;28;20133;-74
2023/05/20 00:13:03;;;;;;;;;;;11.00;1.00;;;;;;4994552;28;20038;-74
2023/05/20 00:15:29;;;;;;;6.85;3.00;;;11.00;1.00;;;;;;5023060;28;19917;-74
2023/05/20 00:17:56;;;;;;;5.28;2.50;;;10.90;10.10;;;;;;4977902;28;20437;-73
2023/05/20 00:20:21;;;;;;;4.40;2.50;;;10.90;94.90;;;;;;4977112;28;20042;-73
2023/05/20 00:22:47;;;;;;;8.13;3.67;;;10.90;75.30;;;;;;4995068;28;20041;-73
2023/05/20 00:25:13;;;;;;;7.45;3.17;;;10.90;28.30;;;;;;4993309;28;20041;-74
2023/05/20 00:27:42;;;;;;;5.65;2.55;;;10.90;45.40;;;;;;4993783;28;20098;-74
2023/05/20 00:30:08;;;;;;;4.57;2.20;;;10.80;49.30;;;;;;4977031;28;20046;-74
2023/05/20 00:32:34;;;;;;;4.40;2.60;;;10.80;99.90;;;;;;4992329;28;20038;-74
2023/05/20 00:35:01;;;;;;;5.47;2.50;;;10.90;99.90;;;;;;4993161;28;20366;-74
2023/05/20 00:37:27;;;;;;;7.57;2.97;;;10.80;30.30;;;;;;5009259;28;20149;-74
2023/05/20 00:39:53;;;;;;;6.00;2.40;;;10.80;1.00;;;;;;5013279;28;20042;-74
2023/05/20 00:42:20;;;;;;;6.93;2.58;;;10.80;97.50;;;;;;4974113;28;20184;-74
2023/05/20 00:44:46;;;;;;;4.63;2.22;;;10.80;99.90;;;;;;4993735;28;20057;-74
2023/05/20 00:47:13;;;;;;;4.30;2.08;;;10.90;99.90;;;;;;4993306;28;20065;-75
2023/05/20 00:49:39;;;;;;;3.90;2.42;;;10.80;99.90;;;;;;4993417;28;20046;-75
2023/05/20 00:52:06;;;;;;;6.97;2.10;;;10.90;99.90;;;;;;4957358;28;20373;-75
2023/05/20 00:54:32;;;;;;;5.45;2.05;;;10.90;99.90;;;;;;4976394;28;20485;-75
2023/05/20 00:56:58;;;;;;;4.60;2.78;;;10.80;99.90;;;;;;5010779;28;20053;-73
2023/05/20 00:59:25;;;;;;;6.40;2.78;;;10.90;99.90;;;;;;4977676;28;20042;-72
2023/05/20 01:01:51;;;;;;;4.07;2.33;;;10.80;98.20;;;;;;4993209;28;20073;-75
2023/05/20 01:04:17;;;;;;;4.68;2.60;;;10.80;99.90;;;;;;4993029;28;20056;-74
2023/05/20 01:06:45;;;;;;;4.47;2.42;;;10.80;81.10;;;;;;4993323;28;20042;-74
2023/05/20 01:09:12;;;;;;;3.45;2.30;;;10.90;99.90;;;;;;4977432;28;20409;-74
2023/05/20 01:11:47;;;;;;;4.28;2.30;;;10.90;95.00;;;;;;4992164;28;20049;-73
2023/05/20 01:14:16;;;;;;;5.15;2.60;;;10.80;81.30;;;;;;4992649;28;20050;-74
2023/05/20 01:16:42;;;;;;;5.80;2.50;;;10.80;99.90;;;;;;4993351;28;20085;-73
2023/05/20 01:19:24;;;;;;;4.70;2.20;;;10.80;27.00;;;;;;4992743;28;20080;-73
2023/05/20 01:21:52;;;;;;;3.47;2.15;;;10.80;99.90;;;;;;4992898;28;20051;-74
2023/05/20 01:24:17;;;;;;;6.75;2.30;;;10.80;20.80;;;;;;4992837;28;20627;-74
2023/05/20 01:26:47;;;;;;;6.35;2.58;;;10.70;66.90;;;;;;4993078;28;20104;-73
2023/05/20 01:29:17;;;;;;;4.70;2.40;;;10.70;1.00;;;;;;4992052;28;20092;-73
2023/05/20 01:31:44;;;;;;;4.15;2.30;;;10.70;83.80;;;;;;5010628;28;20046;-72
2023/05/20 01:34:11;;;;;;;5.95;1.75;;;10.70;99.50;;;;;;4992223;28;20038;-73
2023/05/20 01:36:38;;;;;;;4.20;1.85;;;10.60;99.90;;;;;;4991849;28;20127;-73
2023/05/20 01:39:05;;;;;;;3.65;1.88;;;10.60;99.90;;;;;;4992032;28;20060;-73
2023/05/20 01:41:33;;;;;;;5.78;2.30;;;10.60;99.90;;;;;;4991079;28;20480;-74
2023/05/20 01:43:59;;;;;;;3.38;2.10;;;10.60;99.90;;;;;;4977465;28;20395;-73
2023/05/20 01:46:25;;;;;;;3.70;2.17;;;10.60;99.90;;;;;;4983147;28;20049;-73
2023/05/20 01:48:51;;;;;;;3.38;1.58;;;10.50;99.90;;;;;;4976328;28;20050;-73
2023/05/20 01:51:16;;;;;;;3.78;1.92;;;10.50;99.90;;;;;;4976333;28;20046;-73
2023/05/20 01:53:43;;;;;;;3.78;1.83;;;10.50;99.90;;;;;;4992724;28;20125;-73
2023/05/20 01:56:08;;;;;;;4.53;2.00;;;10.50;99.90;;;;;;4991348;28;20038;-74
2023/05/20 01:58:34;;;;;;;2.80;1.83;;;10.50;99.90;;;;;;4975890;28;20048;-74
2023/05/20 02:01:00;;;;;;;3.95;1.98;;;10.50;99.90;;;;;;4980352;28;20052;-74
2023/05/20 02:03:26;;;;;;;3.00;1.90;;;10.50;92.80;;;;;;4991207;28;20056;-73
2023/05/20 02:05:51;;;;;;;6.50;2.50;;;10.50;14.20;;;;;;5008435;28;20034;-73
2023/05/20 02:08:17;;;;;;;3.67;2.42;;;10.50;1.00;;;;;;4988020;28;20542;-74
2023/05/20 02:10:43;;;;;;;2.67;1.60;;;10.40;69.20;;;;;;4973700;28;20042;-74
2023/05/20 02:13:08;;;;;;;4.00;2.13;;;10.50;99.90;;;;;;4973222;28;20061;-74
2023/05/20 02:15:34;;;;;;;4.80;2.40;;;10.40;99.90;;;;;;4973255;28;20074;-74
2023/05/20 02:18:01;;;;;;;4.03;2.10;;;10.50;81.40;;;;;;4986002;28;20037;-74
2023/05/20 02:20:26;;;;;;;4.40;2.67;;;10.40;96.90;;;;;;4992926;28;20058;-74
2023/05/20 02:22:52;;;;;;;2.53;1.77;;;10.40;91.50;;;;;;4992450;28;20451;-74
2023/05/20 02:25:18;;;;;;;2.45;1.70;;;10.40;99.90;;;;;;4992695;28;20065;-74
2023/05/20 02:27:43;;;;;;;7.75;2.40;;;10.30;93.70;;;;;;4991726;28;20049;-74
2023/05/20 02:30:09;;;;;;;4.10;2.30;;;10.30;84.40;;;;;;4989586;28;20397;-74
2023/05/20 02:32:35;;;;;;;3.90;2.38;;;10.30;99.90;;;;;;5007358;28;20054;-74
2023/05/20 02:35:01;;;;;;;4.78;2.40;;;10.30;99.90;;;;;;4992427;28;20049;-74
2023/05/20 02:37:27;;;;;;;3.38;2.40;;;10.30;99.90;;;;;;4991765;28;20046;-74
2023/05/20 02:39:54;;;;;;;4.38;1.90;;;10.30;99.90;;;;;;5024619;28;20045;-73
2023/05/20 02:42:20;;;;;;;3.28;2.35;;;10.20;99.90;;;;;;4992412;28;20050;-74
2023/05/20 02:44:46;;;;;;;4.60;2.58;;;10.20;29.90;;;;;;4975734;28;20477;-74
2023/05/20 02:47:13;;;;;;;3.50;2.05;;;10.20;99.90;;;;;;4991438;28;20062;-72
2023/05/20 02:49:38;;;;;;;4.43;2.42;;;10.20;99.90;;;;;;4992189;28;20096;-73
2023/05/20 02:52:04;;;;;;;4.43;2.10;;;10.20;99.90;;;;;;4992788;28;20045;-73
2023/05/20 02:54:30;;;;;;;2.75;1.98;;;10.20;99.90;;;;;;4995402;28;20057;-73
2023/05/20 02:56:56;;;;;;;2.75;2.08;;;10.20;99.90;;;;;;4994637;28;20056;-73
2023/05/20 02:59:21;;;;;;;5.82;2.45;;;10.20;99.90;;;;;;4995193;28;20118;-73
2023/05/20 03:01:47;;;;;;;2.80;1.80;;;10.20;99.90;;;;;;4979171;28;20069;-74
2023/05/20 03:04:13;;;;;;;3.25;1.92;;;10.20;99.90;;;;;;4995391;28;20084;-73
2023/05/20 03:06:43;;;;;;;3.80;2.15;;;10.20;78.70;;;;;;4994524;28;20477;-73
2023/05/20 03:09:08;;;;;;;4.15;1.80;;;10.30;99.90;;;;;;4995335;28;20042;-74
2023/05/20 03:11:34;;;;;;;2.40;1.65;;;10.30;99.90;;;;;;4995637;28;20099;-73
2023/05/20 03:14:00;;;;;;;2.85;1.60;;;10.30;99.90;;;;;;4994926;28;20416;-74
2023/05/20 03:16:26;;;;;;;4.47;2.08;;;10.30;99.90;;;;;;4994069;28;20054;-73
2023/05/20 03:18:53;;;;;;;3.13;2.00;;;10.30;92.60;;;;;;5014221;28;20078;-74
2023/05/20 03:21:19;;;;;;;3.20;1.83;;;10.30;99.90;;;;;;5010835;28;20505;-73
2023/05/20 03:23:45;;;;;;;2.53;1.73;;;10.30;99.90;;;;;;5012973;28;20154;-74
2023/05/20 03:26:10;;;;;;;5.20;2.05;;;10.30;99.90;;;;;;4994520;28;20381;-73
2023/05/20 03:28:36;;;;;;;3.35;1.63;;;10.30;57.20;;;;;;5010832;28;20042;-73
2023/05/20 03:31:03;;;;;;;2.35;1.60;;;10.20;76.30;;;;;;4994039;28;20048;-73
2023/05/20 03:33:30;;;;;;;5.75;2.47;;;10.20;99.90;;;;;;4995319;28;20120;-73
2023/05/20 03:35:55;;;;;;;3.53;2.20;;;10.20;27.80;;;;;;4978356;28;20073;-73
2023/05/20 03:38:21;;;;;;;2.97;2.10;;;10.20;76.20;;;;;;4994553;28;20524;-73
2023/05/20 03:40:47;;;;;;;3.97;2.10;;;10.20;6.30;;;;;;5027392;28;20050;-73
2023/05/20 03:43:12;;;;;;;3.17;1.80;;;10.20;23.50;;;;;;4994366;28;20054;-73
2023/05/20 03:45:38;;;;;;;3.67;1.88;;;10.10;62.80;;;;;;4993952;28;20061;-73
2023/05/20 03:48:04;;;;;;;3.13;1.75;;;10.20;16.20;;;;;;4990685;28;20475;-74
2023/05/20 03:50:30;;;;;;;3.55;1.63;;;10.10;1.00;;;;;;4993482;28;20038;-73
2023/05/20 03:52:55;;;;;;;3.10;1.80;;;10.10;22.70;;;;;;4994427;28;20480;-73
2023/05/20 03:55:21;;;;;;;2.92;1.30;;;10.10;1.00;;;;;;4993630;28;20382;-74
2023/05/20 03:57:47;;;;;;;3.20;1.50;;;10.20;38.50;;;;;;4992206;28;20041;-74
2023/05/20 04:00:13;;;;;;;1.75;1.10;;;10.20;33.50;;;;;;4994411;28;20228;-73
2023/05/20 04:02:39;;;;;;;1.88;1.20;;;10.30;8.20;;;;;;4978873;28;20126;-74
2023/05/20 04:05:07;;;;;;;2.25;1.30;;;10.30;1.00;;;;;;5016886;28;20533;-73
2023/05/20 04:07:33;;;;;;;1.70;1.10;;;10.30;1.00;;;;;;4986975;28;20450;-75
2023/05/20 04:09:58;;;;;;;2.55;1.25;;;10.40;1.00;;;;;;4993459;28;20042;-74
2023/05/20 04:12:29;;;;;;;2.15;1.20;;;10.40;1.00;;;;;;4994174;28;20490;-74
2023/05/20 04:14:57;;;;;;;3.05;1.55;;;10.50;1.00;;;;;;4994463;28;20068;-74
2023/05/20 04:17:22;;;;;;;4.10;1.60;;;10.50;1.00;;;;;;5011683;28;20508;-73
2023/05/20 04:19:48;;;;;;;3.55;1.35;;;10.60;1.00;;;;;;4993946;28;20081;-73
2023/05/20 04:22:14;;;;;;;2.25;1.30;;;10.60;1.00;;;;;;5001313;28;20465;-73
2023/05/20 04:24:39;;;;;;;2.65;1.60;;;10.70;1.00;;;;;;4977706;28;20172;-74
2023/05/20 04:27:06;;;;;;;1.90;1.15;;;10.80;99.90;;;;;;4992658;28;20489;-74
2023/05/20 04:29:33;;;;;;;2.85;1.23;;;10.80;99.90;;;;;;5026644;28;20497;-74
2023/05/20 04:32:00;;;;;;;2.00;1.20;;;10.80;99.90;;;;;;5026681;28;20088;-74
2023/05/20 04:34:28;;;;;;;2.65;1.30;;;10.90;99.90;;;;;;4993430;28;20045;-73
2023/05/20 04:36:54;;;;;;;3.05;1.20;;;10.90;99.90;;;;;;4993215;28;20408;-73
2023/05/20 04:39:20;;;;;;;3.15;1.13;;;10.90;99.90;;;;;;4993411;28;20054;-74
2023/05/20 04:41:47;;;;;;;1.90;1.25;;;11.00;99.90;;;;;;4993645;28;20493;-73
2023/05/20 04:44:13;;;;;;;2.08;1.10;;;11.00;99.90;;;;;;4977564;28;20049;-74
2023/05/20 04:46:38;;;;;;;3.45;1.15;;;11.10;99.90;;;;;;4991098;28;20058;-74
2023/05/20 04:49:04;;;;;;;2.13;1.23;;;11.10;99.90;;;;;;4988916;28;20043;-74
2023/05/20 04:51:30;;;;;;;1.77;0.98;;;11.20;99.90;;;;;;4973618;28;20041;-73
2023/05/20 04:53:57;;;;;;;1.90;1.25;;;11.20;99.90;;;;;;4993476;28;20056;-73
2023/05/20 04:56:23;;;;;;;1.52;1.10;;;11.30;99.90;;;;;;4992675;28;20085;-73
2023/05/20 04:58:49;;;;;;;2.03;1.15;;;11.30;99.90;;;;;;4993168;28;20579;-72
2023/05/20 05:01:14;;;;;;;2.15;0.95;;;11.30;99.90;;;;;;4993356;28;20041;-72
2023/05/20 05:03:40;;;;;;;3.13;0.93;;;11.30;99.90;;;;;;4993261;28;20045;-73
2023/05/20 05:06:06;;;;;;;2.03;1.20;;;11.40;99.90;;;;;;4992111;28;20508;-73
2023/05/20 05:08:31;;;;;;;2.00;1.00;;;11.40;99.90;;;;;;5012638;28;20124;-73
2023/05/20 05:10:57;;;;;;;1.77;1.10;;;11.40;64.00;;;;;;4993260;28;20042;-74
2023/05/20 05:13:22;;;;;;;1.08;0.70;;;11.40;34.20;;;;;;4977053;28;20073;-73
2023/05/20 05:15:57;;;;;;;2.15;1.00;;;11.40;1.00;;;;;;4975924;28;20050;-75
2023/05/20 05:18:23;;;;;;;3.25;1.30;;;11.50;1.00;;;;;;4992424;28;20053;-73
2023/05/20 05:20:49;;;;;;;1.55;1.10;;;11.60;99.90;;;;;;4992299;28;20129;-74
2023/05/20 05:23:14;;;;;;;2.22;0.88;;;11.60;62.90;;;;;;4992358;28;20123;-72
2023/05/20 05:25:40;;;;;;;1.67;0.93;;;11.60;85.70;;;;;;4992973;28;20045;-73
2023/05/20 05:28:06;;;;;;;1.02;0.80;;;11.70;1.00;;;;;;4992913;28;20049;-73
2023/05/20 05:30:31;;;;;;;1.45;0.70;;;11.80;32.80;;;;;;4992841;28;20072;-74
2023/05/20 05:32:57;;;;;;;2.28;0.98;;;11.90;99.90;;;;;;4991686;28;20440;-74
2023/05/20 05:35:22;;;;;;;1.60;0.90;;;11.90;99.90;;;;;;4991801;28;20145;-72
2023/05/20 05:37:48;;;;;;;1.65;1.10;;;12.00;1.00;;;;;;4975924;28;20053;-73
2023/05/20 05:40:14;;;;;;;2.03;1.42;;;12.10;99.90;;;;;;4992991;28;20050;-73
2023/05/20 05:42:39;;;;;;;2.75;1.20;;;12.30;99.90;;;;;;4991962;28;20038;-73
2023/05/20 05:45:06;;;;;;;2.83;1.27;;;12.50;99.90;;;;;;4992916;28;20101;-73
2023/05/20 05:47:31;;;;;;;;;;;12.60;99.90;;;;;;4992894;28;20119;-73
2023/05/20 05:49:58;;;;;;;1.73;0.93;;;12.80;19.20;;;;;;4992961;28;20365;-72
2023/05/20 05:52:25;;;;;;;2.45;0.77;;;13.10;19.00;;;;;;4975681;28;20084;-72
2023/05/20 05:54:51;;;;;;;1.77;0.98;;;13.40;52.40;;;;;;4993081;28;20192;-72
2023/05/20 05:57:16;;;;;;;2.15;0.57;;;13.80;92.00;;;;;;4973171;28;20465;-74
2023/05/20 05:59:42;;;;;;;1.70;0.88;;;14.10;19.70;;;;;;4973589;28;20495;-74
2023/05/20 06:02:09;;;;;;;3.35;1.13;;;14.50;99.90;;;;;;4991940;28;20050;-73
2023/05/20 06:04:35;;;;;;;1.70;1.00;;;14.90;99.90;;;;;;4992894;28;20516;-74
2023/05/20 06:07:01;;;;;;;3.00;1.15;;;15.20;1.00;;;;;;5009896;28;20046;-74
2023/05/20 06:09:26;;;;;;;1.95;0.90;;;15.40;99.90;;;;;;4992799;28;20037;-73
2023/05/20 06:11:52;;;;;;;1.55;0.88;;;15.20;99.90;;;;;;4992058;28;20034;-73
2023/05/20 06:14:17;;;;;;;2.78;1.00;;;14.80;99.90;;;;;;5008479;28;20050;-74
2023/05/20 06:16:43;;;;;;;1.38;0.82;;;14.50;99.90;;;;;;4991010;28;20084;-73
2023/05/20 06:19:09;;;;;;;3.85;1.00;;;14.20;99.90;;;;;;4987451;28;20045;-74
2023/05/20 06:21:35;;;;;;;1.85;0.70;;;14.20;99.90;;;;;;5000796;28;20506;-73
2023/05/20 06:24:01;;;;;;;;;;;14.20;99.90;;;;;;4990221;28;20542;-73
2023/05/20 06:26:27;;;;;;;1.27;0.88;;;14.40;99.90;;;;;;4992584;28;19948;-73
2023/05/20 06:28:52;;;;;;;2.47;1.00;;;14.60;99.90;;;;;;5019158;28;20342;-73
2023/05/20 06:31:18;;;;;;;1.80;0.82;;;14.70;99.90;;;;;;4995196;28;20049;-74
2023/05/20 06:33:44;;;;;;;2.80;0.90;;;14.60;99.90;;;;;;5011194;28;20034;-73
2023/05/20 06:36:10;;;;;;;;;;;14.40;99.90;;;;;;5012562;28;20042;-73
2023/05/20 06:38:36;;;;;;;1.98;1.17;;;14.10;99.90;;;;;;4994087;28;19921;-74
2023/05/20 06:41:02;;;;;;;1.50;0.98;;;14.00;99.90;;;;;;4994041;28;20049;-73
2023/05/20 06:43:28;;;;;;;1.60;0.75;;;14.00;99.90;;;;;;4977677;28;20045;-74
2023/05/20 06:45:54;;;;;;;1.00;0.68;;;14.00;99.90;;;;;;4978719;28;20049;-73
2023/05/20 06:48:20;;;;;;;1.95;0.82;;;14.10;99.90;;;;;;4974406;28;20449;-73
2023/05/20 06:50:45;;;;;;;1.38;0.68;;;14.40;99.90;;;;;;4979233;28;20512;-73
2023/05/20 06:53:11;;;;;;;1.75;0.80;;;14.60;99.90;;;;;;4979763;28;20465;-73
2023/05/20 06:55:37;;;;;;;2.38;1.00;;;14.80;99.90;;;;;;4996277;28;20046;-73
2023/05/20 06:58:03;;;;;;;2.05;1.00;;;14.70;99.90;;;;;;4996097;28;20473;-73
2023/05/20 07:00:28;;;;;;;2.70;0.95;;;14.60;99.90;;;;;;4994907;28;20073;-73
2023/05/20 07:02:54;;;;;;;2.13;1.00;;;14.60;99.90;;;;;;5012212;28;20443;-74
2023/05/20 07:05:20;;;;;;;1.40;0.80;;;14.50;99.90;;;;;;5013066;28;20142;-73
2023/05/20 07:07:45;;;;;;;1.40;0.80;;;14.60;99.90;;;;;;5013704;28;20115;-74
2023/05/20 07:10:11;;;;;;;2.08;0.90;;;14.60;99.90;;;;;;4995082;28;20149;-73
2023/05/20 07:12:37;;;;;;;1.52;0.90;;;14.60;99.90;;;;;;5012140;28;20050;-73
2023/05/20 07:15:02;;;;;;;2.08;0.82;;;14.70;99.90;;;;;;4994750;28;20034;-73
2023/05/20 07:17:28;;;;;;;2.00;1.10;;;14.80;99.90;;;;;;4995502;28;20119;-73
2023/05/20 07:19:55;;;;;;;2.53;0.90;;;14.90;99.90;;;;;;4995094;28;20096;-73
2023/05/20 07:22:21;;;;;;;2.58;1.10;;;14.90;99.90;;;;;;4993599;28;20050;-73
2023/05/20 07:24:47;;;;;;;1.65;0.80;;;14.90;99.90;;;;;;5027329;28;20129;-73
2023/05/20 07:27:13;;;;;;;3.42;1.00;;;15.10;99.90;;;;;;5027845;28;20203;-73
2023/05/20 07:29:38;;;;;;;2.90;0.80;;;15.10;99.90;;;;;;5011369;28;20057;-73
2023/05/20 07:32:04;;;;;;;1.42;1.08;;;15.20;99.90;;;;;;4995229;28;20116;-73
2023/05/20 07:34:30;;;;;;;2.40;0.90;;;15.40;99.90;;;;;;4993990;28;20046;-73
2023/05/20 07:36:57;;;;;;;2.30;1.00;;;15.40;99.90;;;;;;4994661;28;20041;-73
2023/05/20 07:39:23;;;;;;;1.45;0.80;;;15.60;99.90;;;;;;4993577;28;20077;-73
2023/05/20 07:41:49;;;;;;;1.50;0.80;;;15.70;99.90;;;;;;4995473;28;20057;-74
2023/05/20 07:44:17;;;;;;;2.33;0.95;;;15.80;51.50;;;;;;4993807;28;20052;-73
2023/05/20 07:46:43;;;;;;;1.13;0.80;;;16.10;99.90;;;;;;5012067;28;20058;-73
2023/05/20 07:49:09;;;;;;;1.45;1.00;;;16.10;1.00;;;;;;4994883;28;20107;-73
2023/05/20 07:51:35;;;;;;;1.08;0.80;;;16.10;98.60;;;;;;4995179;28;20041;-73
2023/05/20 07:54:01;;;;;;;1.80;0.98;;;16.20;66.80;;;;;;4992390;28;20382;-74
2023/05/20 07:56:27;;;;;;;1.20;0.80;;;16.20;52.90;;;;;;4994052;28;20042;-73
2023/05/20 07:58:57;;;;;;;1.30;0.90;;;16.30;56.30;;;;;;5023389;28;20046;-74
2023/05/20 08:01:23;;;;;;;1.02;0.63;;;16.60;14.00;;;;;;4993253;28;20089;-74
2023/05/20 08:03:48;;;;;;;;;;;16.90;1.00;;;;;;4995200;28;20053;-74
2023/05/20 08:06:14;;;;;;;1.00;0.70;;;17.20;1.00;;;;;;4991342;28;20281;-74
2023/05/20 08:08:40;;;;;;;1.73;0.80;;;17.40;99.90;;;;;;4993102;28;20045;-73
2023/05/20 08:11:06;;;;;;;3.00;0.80;;;17.60;99.90;;;;;;4993256;28;20108;-73
2023/05/20 08:13:32;;;;;;;1.23;0.80;;;17.70;99.90;;;;;;5011563;28;20037;-73
2023/05/20 08:15:58;;;;;;;1.55;0.90;;;17.80;99.90;;;;;;4990355;28;20287;-73
2023/05/20 08:18:23;;;;;;;1.48;0.80;;;17.80;99.90;;;;;;4990277;28;20064;-74
2023/05/20 08:20:50;;;;;;;2.15;0.50;;;17.90;99.90;;;;;;4978191;28;20053;-73
2023/05/20 08:23:15;;;;;;;1.45;0.80;;;18.00;99.90;;;;;;4994074;28;20057;-73
2023/05/20 08:25:41;;;;;;;;;;;18.20;99.90;;;;;;4993866;28;20038;-74
2023/05/20 08:28:07;;;;;;;1.40;0.65;;;18.20;99.90;;;;;;4992633;28;20400;-73
2023/05/20 08:30:33;;;;;;;1.20;0.80;;;18.40;99.90;;;;;;5010218;28;20129;-74
2023/05/20 08:32:59;;;;;;;;;;;18.30;99.90;;;;;;4994342;28;20058;-74
2023/05/20 08:35:25;;;;;;;1.75;1.00;;;18.40;99.90;;;;;;4992023;28;20020;-74
2023/05/20 08:37:52;;;;;;;;;;;18.60;99.90;;;;;;5011173;28;20163;-74
2023/05/20 08:40:19;;;;;;;2.33;1.10;;;18.50;99.90;;;;;;4993227;28;20708;-74
2023/05/20 08:42:47;;;;;;;1.90;0.90;;;18.50;99.90;;;;;;5010304;28;20074;-74
2023/05/20 08:45:17;;;;;;;2.10;0.88;;;18.60;99.90;;;;;;5012637;28;20037;-74
2023/05/20 08:47:43;;;;;;;1.67;0.70;;;18.50;99.90;;;;;;4992271;28;20061;-74
2023/05/20 08:50:10;;;;;;;1.83;0.93;;;18.70;99.90;;;;;;4992808;28;20046;-74
2023/05/20 08:52:39;;;;;;;1.13;0.77;;;18.70;99.90;;;;;;4992141;28;20033;-74
2023/05/20 08:55:08;;;;;;;2.55;0.75;;;18.80;99.90;;;;;;4994120;28;20124;-74
2023/05/20 08:57:35;;;;;;;1.88;1.00;;;19.00;99.90;;;;;;5014168;28;20108;-74
2023/05/20 09:00:08;;;;;;;2.25;0.80;;;19.20;99.90;;;;;;5021398;28;20137;-74
2023/05/20 09:02:37;;;;;;;2.08;0.98;;;19.30;99.90;;;;;;4993199;28;20092;-75
2023/05/20 09:05:04;;;;;;;2.10;1.10;;;19.40;99.90;;;;;;4993230;28;20120;-74
2023/05/20 09:07:30;;;;;;;1.98;1.02;;;19.30;99.90;;;;;;5010223;28;20073;-74
2023/05/20 09:09:56;;;;;;;1.50;0.90;;;19.30;99.90;;;;;;4993629;28;20041;-74
2023/05/20 09:12:22;;;;;;;1.60;1.02;;;19.30;99.90;;;;;;4993832;28;20057;-74
2023/05/20 09:14:48;;;;;;;;;;;19.20;99.90;;;;;;4992929;28;20042;-74
2023/05/20 09:17:13;;;;;;;1.63;1.00;;;19.30;99.90;;;;;;4992546;28;19917;-74
2023/05/20 09:19:40;;;;;;;;;;;19.30;99.90;;;;;;4976118;28;20452;-73
2023/05/20 09:22:06;;;;;;;0.98;0.70;;;19.40;99.90;;;;;;4992877;28;20261;-74
2023/05/20 09:24:31;;;;;;;;;;;19.60;99.90;;;;;;4991914;28;20038;-74
2023/05/20 09:26:57;;;;;;;1.60;1.00;;;19.80;99.90;;;;;;4991611;28;19927;-73
2023/05/20 09:29:23;;;;;;;;;;;20.00;99.90;;;;;;4991717;28;20069;-74
2023/05/20 09:31:50;;;;;;;1.50;0.90;;;20.10;99.90;;;;;;4990590;28;19924;-74
2023/05/20 09:34:16;;;;;;;2.67;0.90;;;20.10;99.90;;;;;;5025299;28;20053;-73
2023/05/20 09:36:46;;;;;;;1.67;0.88;;;20.20;99.90;;;;;;4991746;28;20465;-73
2023/05/20 09:39:14;;;;;;;2.75;0.90;;;20.20;99.90;;;;;;4979876;28;20050;-73
2023/05/20 09:42:04;;;;;;;1.30;0.90;;;20.30;99.90;;;;;;5012238;28;20085;-73
2023/05/20 09:44:32;;;;;;;2.15;1.10;;;20.50;99.90;;;;;;4991670;28;20077;-73
2023/05/20 09:46:59;;;;;;;1.63;0.82;;;20.30;99.90;;;;;;5005088;28;20081;-73
2023/05/20 09:49:27;;;;;;;2.60;0.90;;;20.40;99.90;;;;;;4991600;28;20050;-74
2023/05/20 09:51:53;;;;;;;2.08;0.85;;;20.60;99.90;;;;;;4985271;28;20043;-73
2023/05/20 09:54:21;;;;;;;1.25;0.82;;;20.80;99.90;;;;;;4970669;28;20042;-73
2023/05/20 09:56:47;;;;;;;1.38;1.00;;;20.90;99.90;;;;;;4989579;28;20493;-73
2023/05/20 09:59:16;;;;;;;1.95;1.08;;;21.00;99.90;;;;;;5007677;28;20041;-73
2023/05/20 10:01:42;;;;;;;1.90;1.08;;;20.90;69.90;;;;;;4994652;28;20046;-74
2023/05/20 10:04:09;;;;;;;0.90;0.80;;;21.10;95.60;;;;;;4977365;28;20050;-73
2023/05/20 10:06:45;;;;;;;2.42;1.40;;;21.00;94.90;;;;;;4994726;28;20128;-73
2023/05/20 10:09:34;;;;;;;3.10;1.17;;;21.10;99.90;;;;;;4999039;28;20514;-74
2023/05/20 10:12:38;;;;;;;2.53;1.10;;;21.00;82.50;;;;;;4973040;28;20050;-74
2023/05/20 10:15:26;;;;;;;4.00;1.23;;;21.00;90.40;;;;;;4967519;28;20053;-74
2023/05/20 10:17:52;;;;;;;1.90;0.98;;;21.20;86.20;;;;;;4991825;28;20118;-75
2023/05/20 10:20:18;;;;;;;1.42;0.90;;;21.40;58.80;;;;;;4998126;28;20267;-74
2023/05/20 10:22:57;;;;;;;1.17;1.00;;;21.70;77.00;;;;;;4975089;28;20054;-74
2023/05/20 10:25:27;;;;;;;2.65;0.90;;;21.50;26.40;;;;;;4997256;28;20048;-73
2023/05/20 10:28:06;;;;;;;2.50;1.10;;;21.80;70.40;;;;;;4986612;28;20130;-74
2023/05/20 10:30:32;;;;;;;1.92;0.90;;;21.90;47.70;;;;;;4979156;28;20045;-74
2023/05/20 10:33:04;;;;;;;1.73;1.20;;;22.00;33.00;;;;;;5006054;28;20095;-74
2023/05/20 10:35:30;;;;;;;2.67;1.00;;;21.60;24.90;;;;;;4994730;28;20038;-74
2023/05/20 10:38:08;;;;;;;2.40;0.85;;;21.50;75.60;;;;;;4997757;28;20071;-74
2023/05/20 10:40:34;;;;;;;3.28;0.95;;;21.80;98.30;;;;;;4992292;28;20045;-74
2023/05/20 10:43:09;;;;;;;2.20;1.15;;;21.60;72.50;;;;;;4997207;28;20046;-74
2023/05/20 10:45:53;;;;;;;1.63;1.00;;;21.60;39.70;;;;;;4995508;28;20080;-74
2023/05/20 10:48:30;;;;;;;2.00;1.30;;;21.60;57.90;;;;;;4998117;28;20058;-74
2023/05/20 10:51:03;;;;;;;3.75;1.35;;;21.30;85.80;;;;;;4995905;28;20096;-74
2023/05/20 10:53:38;;;;;;;1.30;0.80;;;20.70;91.20;;;;;;5013856;28;20378;-75
2023/05/20 10:56:05;;;;;;;1.50;0.98;;;20.50;94.80;;;;;;4982676;28;20129;-75
2023/05/20 10:58:38;;;;;;;1.67;1.15;;;20.20;99.90;;;;;;4994561;28;20060;-73
2023/05/20 11:01:04;;;;;;;2.17;1.10;;;20.40;99.90;;;;;;4986236;28;20468;-75
2023/05/20 11:03:30;;;;;;;2.78;0.90;;;20.60;99.90;;;;;;4996066;28;20046;-75
2023/05/20 11:05:56;;;;;;;1.52;0.93;;;20.50;99.90;;;;;;4984112;28;20050;-73
2023/05/20 11:08:21;;;;;;;2.15;1.10;;;20.70;99.90;;;;;;4995658;28;20044;-73
2023/05/20 11:10:47;;;;;;;1.65;0.98;;;20.90;99.90;;;;;;4979605;28;20065;-73
2023/05/20 11:13:16;;;;;;;2.20;1.13;;;20.50;99.90;;;;;;4994455;28;20092;-73
2023/05/20 11:15:42;;;;;;;3.05;1.20;;;20.30;99.90;;;;;;5012613;28;20163;-73
2023/05/20 11:18:11;;;;;;;2.58;1.65;;;19.90;99.90;;;;;;4998282;28;20069;-74
2023/05/20 11:20:36;;;;;;;1.52;1.00;;;19.60;99.90;;;;;;4998648;28;20099;-75
2023/05/20 11:23:04;;;;;;;1.67;1.08;;;19.90;99.90;;;;;;4997940;28;20435;-74
2023/05/20 11:25:32;;;;;;;3.75;1.40;;;19.80;99.90;;;;;;4997584;28;20345;-74
2023/05/20 11:27:58;;;;;;;2.83;1.27;;;20.00;99.90;;;;;;5007594;28;20051;-72
2023/05/20 11:30:24;;;;;;;2.63;1.00;;;20.50;99.90;;;;;;5028779;28;20038;-72
2023/05/20 11:33:01;;;;;;;2.53;1.55;;;20.90;99.90;;;;;;4995630;28;20507;-72
2023/05/20 11:35:29;;;;;;;1.95;1.00;;;20.70;99.90;;;;;;5013309;28;20029;-74
2023/05/20 11:38:08;;;;;;;2.33;1.48;;;20.40;99.90;;;;;;4994392;28;20483;-74
2023/05/20 11:40:34;;;;;;;3.65;1.40;;;20.00;99.90;;;;;;5027833;28;20046;-74
2023/05/20 11:43:01;;;;;;;2.60;1.10;;;20.20;99.90;;;;;;5005623;28;20044;-74
2023/05/20 11:45:37;;;;;;;2.22;1.20;;;20.50;99.90;;;;;;4995865;28;20143;-75
2023/05/20 11:48:04;;;;;;;2.67;1.30;;;20.90;99.90;;;;;;4993170;28;20081;-73
2023/05/20 11:50:39;;;;;;;4.07;1.48;;;21.00;99.90;;;;;;4992890;28;20050;-74
2023/05/20 11:53:06;;;;;;;2.67;1.25;;;21.00;99.90;;;;;;5002092;28;20179;-74
2023/05/20 11:55:33;;;;;;;1.67;1.00;;;20.90;99.90;;;;;;4995573;28;20045;-74
2023/05/20 11:58:00;;;;;;;2.58;1.38;;;21.30;99.90;;;;;;4995893;28;20041;-74
2023/05/20 12:00:25;;;;;;;3.60;1.55;;;21.70;99.90;;;;;;4995626;28;20053;-74
2023/05/20 12:02:51;;;;;;;2.88;1.40;;;21.80;99.90;;;;;;5020451;28;20049;-74
2023/05/20 12:05:17;;;;;;;3.55;1.48;;;21.60;99.90;;;;;;4995111;28;20741;-76
2023/05/20 12:07:43;;;;;;;;;;;21.60;99.90;;;;;;4978076;28;20042;-74
2023/05/20 12:10:09;;;;;;;2.92;1.38;;;21.20;99.90;;;;;;5011525;28;19959;-74
2023/05/20 12:12:35;;;;;;;2.65;1.50;;;20.80;99.90;;;;;;4994093;28;20042;-74
2023/05/20 12:15:05;;;;;;;2.65;1.58;;;20.60;99.90;;;;;;4994130;28;20050;-74
2023/05/20 12:17:45;;;;;;;2.60;1.35;;;20.40;99.90;;;;;;4978282;28;20041;-74
2023/05/20 12:20:14;;;;;;;4.32;1.75;;;20.30;99.90;;;;;;5012553;28;20053;-74
2023/05/20 12:22:40;;;;;;;2.88;1.45;;;20.60;99.90;;;;;;4994650;28;20050;-74
2023/05/20 12:25:06;;;;;;;2.97;1.45;;;20.80;99.90;;;;;;4994307;28;20053;-74
2023/05/20 12:27:32;;;;;;;2.50;1.52;;;21.10;99.90;;;;;;4994309;28;20052;-74
2023/05/20 12:29:59;;;;;;;2.58;1.30;;;21.50;99.90;;;;;;4994781;28;20104;-73
2023/05/20 12:32:25;;;;;;;2.80;1.00;;;21.40;99.90;;;;;;4979102;28;20045;-73
2023/05/20 12:34:50;;;;;;;2.55;1.70;;;21.40;99.90;;;;;;5027131;28;20481;-74
2023/05/20 12:37:16;;;;;;;2.78;1.42;;;21.40;99.90;;;;;;5010258;28;20092;-74
2023/05/20 12:39:42;;;;;;;2.75;1.75;;;21.10;99.90;;;;;;4994240;28;20046;-74
2023/05/20 12:42:08;;;;;;;2.78;1.60;;;21.10;99.90;;;;;;4978191;28;20053;-73
2023/05/20 12:44:33;;;;;;;1.95;1.33;;;21.20;99.90;;;;;;4994032;28;20049;-74
2023/05/20 12:46:59;;;;;;;3.88;1.60;;;21.10;99.90;;;;;;5011383;28;20049;-73
2023/05/20 12:49:25;;;;;;;2.03;1.30;;;20.80;99.90;;;;;;4984842;28;20043;-73